Weather observations for the past three days for
Taylorville, Taylorville Municipal Airport
Metric (Imperial)
Date Time (cdt) Wind (kph) Vis. (km) Weather Sky Cond. Temperature (ºC) Relative Humidity Wind Chill (°C) Heat Index (°C) Pressure Precipitation (cm)
Air Dwpt 6 hour altimeter (cm) sea level (mb) 1 hr 3 hr 6 hr
Max. Min.
10 09:00 N 17 16.09 Partly Cloudy SCT110 15 7 59% 76.43 0.0
10 08:41 N 11 16.09 Overcast OVC110 14 7 63% 76.4 0.0
10 08:21 N 13 16.09 Overcast OVC100 13 6 63% 76.4 0.0
10 08:00 N 17 16.09 Partly Cloudy SCT100 13 6 63% 76.38 0.0
10 07:40 N 15 16.09 Fair CLR 13 6 63% 76.33 0.0
10 07:00 N 15 16.09 Partly Cloudy SCT110 12 6 67% 76.28 0.0
10 06:20 N 11 16.09 Mostly Cloudy BKN110 11 6 72% 76.23 0.0
10 06:00 N 13 16.09 Mostly Cloudy BKN110 11 6 72% 76.2 0.0
10 05:40 N 13 16.09 Partly Cloudy SCT110 11 7 77% 76.2 0.0
10 05:21 N 11 16.09 Fair CLR 11 7 77% 76.15 0.0
10 05:00 NW 15 16.09 Fair CLR 11 7 77% 76.12 0.0
10 04:40 N 15 16.09 Fair CLR 12 7 72% 76.05 0.0
10 04:20 N 17 16.09 Fair CLR 12 7 72% 76.02 0.0
10 04:00 N 13 16.09 Fair CLR 12 8 77% 76.02 0.0
10 03:40 N 15 16.09 Fair CLR 12 8 77% 76.02 0.0
10 03:20 N 15 16.09 Fair CLR 13 8 72% 76 0.0
10 03:00 N 15 16.09 Fair CLR 13 8 72% 75.97 0.0
10 02:41 N 13 16.09 Fair CLR 13 9 77% 75.97 0.0
10 02:20 N 15 16.09 Fair CLR 13 11 88% 75.97 0.0
10 02:01 N 11 16.09 Fair CLR 12 10 88% 76 0.0
10 01:40 N 7 16.09 Partly Cloudy SCT080 SCT110 13 10 82% 76 0.0
10 01:21 Calm 16.09 Overcast BKN080 OVC110 14 11 82% 76.02 0.0
10 01:01 SW 6 16.09 Overcast OVC080 15 11 77% 76.02 0.0
10 00:40 SW 6 16.09 Mostly Cloudy SCT090 BKN110 16 10 68% 76 0.0
10 00:20 SW 17 16.09 Overcast SCT090 OVC110 16 11 72% 76.02 0.0
10 00:00 SW 15 16.09 Overcast OVC090 17 10 64% 76 0.0
09 23:41 W 9 16.09 Overcast OVC090 16 11 72% 75.95 0.0
09 23:20 NW 11 16.09 Overcast BKN090 OVC110 17 11 68% 75.9 0.0
09 23:00 N 13 16.09 Overcast SCT080 OVC110 17 9 60% 75.87 0.0
09 22:40 N 17 16.09 Partly Cloudy SCT110 18 9 56% 75.84 0.0
09 22:21 N 24 G 30 16.09 Fair CLR 17 12 73% 75.82 0.0
09 22:00 S 7 16.09 Fair CLR 16 12 77% 75.77 0.0
09 21:40 S 9 16.09 Fair CLR 17 12 73% 75.74 0.0
09 21:21 S 7 16.09 Fair CLR 17 12 73% 75.72 0.0
09 21:01 S 9 16.09 Fair CLR 18 12 68% 75.69 0.0
09 20:40 S 9 16.09 Fair CLR 19 12 64% 75.69 0.0
09 20:20 S 7 16.09 Fair CLR 19 12 64% 75.67 0.0
09 20:00 SW 9 16.09 Fair CLR 20 12 60% 75.67 0.0
09 19:40 SW 9 16.09 Fair CLR 21 12 57% 75.62 0.0
09 19:22 SW 9 16.09 Fair CLR 22 12 53% 75.62 0.0
09 19:04 SW 7 16.09 Fair CLR 23 11 47% 75.62 0.0
09 18:40 W 11 16.09 Fair CLR 24 8 36% 25 75.62 0.0
09 18:20 W 9 16.09 Fair CLR 25 8 34% 26 75.62 0.0
09 18:00 W 15 16.09 Fair CLR 25 8 34% 26 75.62 0.0
09 17:41 NW 9 16.09 Fair CLR 25 8 34% 26 75.59 0.0
09 17:21 W 15 16.09 Fair CLR 25 9 36% 26 75.59 0.0
09 16:40 W 11 16.09 Fair CLR 25 8 34% 26 75.59 0.0
09 16:21 W 20 G 28 16.09 Fair CLR 25 8 34% 26 75.59 0.0
09 16:00 NW 15 G 28 16.09 Partly Cloudy SCT055 24 10 41% 25 75.59 0.0
09 15:40 W 15 16.09 Partly Cloudy SCT055 24 11 44% 25 75.59 0.0
09 15:23 SW 22 G 31 16.09 Partly Cloudy SCT055 24 12 47% 25 75.62 0.0
09 15:00 W 24 G 37 16.09 Fair CLR 24 11 44% 25 75.62 0.0
09 14:40 W 15 G 31 16.09 Fair CLR 23 12 50% 75.64 0.0
09 14:21 SW 20 G 28 16.09 Fair CLR 23 13 53% 75.62 0.0
09 14:00 SW 19 G 28 16.09 Partly Cloudy SCT037 22 14 61% 75.62 0.0
09 13:40 W 20 G 31 16.09 Fair CLR 22 14 61% 75.64 0.0
09 13:23 W 26 G 35 16.09 Fair CLR 22 14 61% 75.64 0.0
09 13:01 W 22 G 37 16.09 Fair CLR 21 14 64% 75.64 0.0
09 12:40 SW 24 G 35 16.09 Fair CLR 21 14 64% 75.67 0.0
09 12:22 SW 26 G 39 16.09 Partly Cloudy SCT024 20 14 69% 75.67 0.0
09 12:01 SW 30 G 37 16.09 Partly Cloudy SCT024 19 14 73% 75.67 0.0
09 11:40 SW 24 G 31 16.09 Partly Cloudy SCT022 19 14 73% 75.67 0.0
09 11:20 SW 22 16.09 Partly Cloudy SCT022 18 14 78% 75.67 0.0
09 11:00 SW 22 G 31 16.09 Fair CLR 18 14 78% 75.64 0.0
09 10:40 SW 17 16.09 Fair CLR 18 14 78% 75.64 0.0
09 10:20 SW 20 G 30 16.09 Partly Cloudy SCT011 17 14 83% 75.64 0.0
09 10:02 SW 19 G 30 16.09 Mostly Cloudy BKN009 16 13 83% 75.64 0.0
09 09:40 SW 20 G 30 16.09 Mostly Cloudy BKN009 16 14 88% 75.64 0.0
09 09:20 SW 20 16.09 Mostly Cloudy BKN007 BKN011 15 13 88% 75.64 0.0
09 09:02 SW 19 16.09 Overcast OVC005 14 13 94% 75.64 0.0
09 08:40 SW 19 16.09 Overcast OVC005 13 13 100% 75.64 0.0
09 08:21 SW 17 8.05 Overcast OVC003 13 13 100% 75.64 0.0
09 08:00 SW 22 G 28 6.44 Overcast OVC003 12 12 100% 75.64 0.0
09 07:40 SW 17 6.44 Overcast OVC003 12 12 100% 75.64 0.0
09 07:20 SW 15 1.61 Overcast OVC003 12 12 100% 75.64 0.0
09 06:59 SW 15 0.80 Overcast OVC003 12 12 100% 75.67 0.0
09 06:41 SW 17 0.40 Overcast OVC003 12 11 94% 75.64 0.0
09 06:20 SW 15 0.40 Overcast OVC003 11 11 100% 75.62 0.0
09 06:00 SW 13 0.80 Overcast OVC003 11 11 100% 75.59 0.0
09 05:41 SW 13 0.40 Overcast OVC003 11 11 100% 75.62 0.0
09 05:20 SW 11 0.80 Overcast OVC003 11 11 100% 75.59 0.0
09 05:02 SW 13 0.80 Overcast OVC003 11 11 100% 75.59 0.0
09 04:39 SW 11 0.40 Overcast OVC003 11 11 100% 75.59 0.0
09 04:21 SW 7 1.61 Overcast OVC003 11 11 100% 75.59 0.0
09 04:00 SW 9 0.80 Overcast OVC003 11 11 100% 75.59 0.0
09 03:40 SW 6 4.83 Overcast OVC003 11 11 100% 75.59 0.0
09 03:20 S 7 11.27 Partly Cloudy SCT003 11 11 100% 75.57 0.0
09 03:00 S 7 11.27 Partly Cloudy SCT003 11 11 100% 75.57 0.0
09 02:40 S 7 11.27 Partly Cloudy SCT003 11 11 100% 75.59 0.0
09 02:21 SW 6 16.09 Fair CLR 12 11 94% 75.59 0.0
09 02:00 S 6 16.09 Fair CLR 12 11 94% 75.59 0.0
09 01:40 Calm 16.09 Fair CLR 12 12 100% 75.59 0.0
09 01:20 S 9 16.09 Fair CLR 12 12 100% 75.62 0.0
09 01:00 S 11 16.09 Fair CLR 13 12 94% 75.62 0.0
09 00:40 S 13 16.09 Fair CLR 13 12 94% 75.64 0.0
09 00:20 S 13 16.09 Fair CLR 13 12 94% 75.64 0.0
09 00:00 SW 13 16.09 Fair CLR 13 12 94% 75.67 0.0
08 23:40 SW 9 16.09 Fair CLR 13 12 94% 75.67 0.0
08 23:20 SW 11 16.09 Partly Cloudy SCT043 SCT060 SCT075 14 12 88% 75.67 0.0
08 23:03 SW 11 16.09 Mostly Cloudy SCT043 BKN060 BKN120 14 12 88% 75.67 0.0
08 22:43 SW 11 16.09 Mostly Cloudy BKN120 14 12 88% 75.67 0.0
08 22:20 W 13 16.09 Partly Cloudy SCT120 14 12 88% 75.64 0.0
08 22:01 W 11 16.09 Partly Cloudy SCT120 14 12 88% 75.67 0.0
08 21:41 W 9 16.09 Partly Cloudy SCT120 14 12 88% 75.67 0.0
08 21:20 W 7 16.09 Partly Cloudy SCT050 SCT080 SCT100 14 12 88% 75.64 0.0
08 21:00 SW 17 16.09 Mostly Cloudy SCT075 SCT080 BKN100 14 12 88% 75.67 0.0
08 20:40 SW 19 16.09 Overcast SCT065 OVC075 14 12 88% 75.67 0.0
08 20:23 SW 15 16.09 Overcast BKN065 OVC075 14 12 88% 75.67 0.0
08 20:00 SW 13 16.09 Overcast OVC065 14 12 88% 75.64 0.0
08 19:40 SW 6 16.09 Overcast OVC075 14 13 94% 75.64 0.0 0.05
08 19:21 Calm 16.09 Overcast OVC075 14 13 94% 75.64 0.0 0.05
08 19:00 S 7 16.09 Overcast OVC075 14 12 88% 75.69 0.0 0.03
08 18:40 Calm 16.09 Overcast OVC075 14 12 88% 75.67 0.0 0.05
08 18:20 Calm 16.09 Overcast SCT075 OVC085 14 13 94% 75.69 0.0 0.03
08 18:00 Calm 11.27 Overcast SCT055 OVC075 14 12 88% 75.69 0.0
08 17:40 SW 6 16.09 Overcast BKN055 BKN075 OVC090 14 13 94% 75.74 0.0
08 17:20 W 7 16.09 Overcast SCT065 SCT075 OVC090 14 13 94% 75.72 0.0
08 17:02 W 7 16.09 Overcast SCT065 BKN075 OVC085 14 12 88% 75.72 0.0
08 16:40 W 7 16.09 Overcast BKN065 OVC085 14 12 88% 75.74 0.0 0.05
08 16:20 W 7 16.09 Overcast SCT075 OVC085 14 12 88% 75.77 0.0 0.03
08 15:40 W 6 8.05 Overcast SCT065 OVC080 14 12 88% 75.77 0.0 0.13
08 15:23 W 13 11.27 Overcast SCT065 OVC090 16 12 77% 75.79 0.0 0.03
08 15:00 W 7 16.09 Overcast SCT070 OVC090 16 11 72% 75.74 0.0
08 14:40 W 15 16.09 Overcast SCT033 SCT070 OVC090 17 10 64% 75.79 0.0
08 14:22 W 13 16.09 Overcast SCT035 OVC090 17 10 64% 75.77 0.0
08 14:01 W 17 G 26 16.09 Overcast OVC090 18 9 56% 75.77 0.0
08 13:40 W 22 16.09 Overcast OVC090 18 9 56% 75.77 0.0
08 13:23 SW 19 16.09 Overcast OVC090 18 9 56% 75.77 0.0
08 13:00 W 24 G 33 16.09 Overcast BKN090 OVC110 18 9 56% 75.79 0.0
08 12:40 W 13 16.09 Overcast BKN080 OVC110 18 10 60% 75.79 0.0
08 12:21 W 19 G 30 16.09 Overcast SCT034 SCT060 OVC080 17 10 64% 75.82 0.0
08 11:20 SW 15 16.09 Overcast SCT075 OVC100 17 9 60% 75.9 0.0
08 11:00 SW 22 G 37 16.09 Overcast OVC100 18 9 56% 75.9 0.0
08 10:41 SW 24 G 41 16.09 Mostly Cloudy BKN110 18 9 56% 75.87 0.0
08 10:20 SW 31 G 39 16.09 Partly Cloudy SCT110 19 9 52% 75.9 0.0
08 10:03 SW 28 G 37 16.09 Partly Cloudy SCT110 18 9 56% 75.9 0.0
08 09:41 SW 26 G 37 16.09 Fair CLR 18 9 56% 75.9 0.0
08 09:21 SW 26 G 33 16.09 Fair CLR 17 9 60% 75.92 0.0
08 09:00 SW 24 G 41 16.09 Fair CLR 16 8 59% 75.92 0.0
08 08:40 SW 19 16.09 Fair CLR 15 8 63% 75.92 0.0
08 08:20 S 19 16.09 Partly Cloudy SCT110 14 8 67% 75.95 0.0
08 08:00 SW 19 16.09 Partly Cloudy SCT110 12 8 77% 75.97 0.0
08 07:44 SW 19 16.09 Partly Cloudy SCT095 SCT120 12 7 72% 75.95 0.0
08 07:20 S 20 16.09 Mostly Cloudy BKN095 11 7 77% 75.92 0.0
08 07:00 S 20 16.09 Overcast OVC095 11 7 77% 75.92 0.0
08 06:41 S 20 G 26 16.09 Overcast OVC095 10 6 76% 8 75.92 0.0
08 06:21 S 17 16.09 Overcast OVC095 9 7 87% 7 75.92 0.0
08 06:00 S 15 16.09 Overcast OVC095 9 6 82% 7 75.92 0.0
08 05:42 S 15 16.09 Overcast OVC095 9 6 82% 7 75.9 0.0
08 05:21 S 17 16.09 Mostly Cloudy BKN095 9 6 82% 7 75.92 0.0
08 05:00 S 17 16.09 Fair CLR 9 6 82% 7 75.92 0.0
08 04:40 S 15 16.09 Partly Cloudy SCT090 9 6 82% 7 75.92 0.0
08 04:20 S 17 16.09 Partly Cloudy SCT090 9 6 82% 7 75.9 0.0
08 04:00 S 17 16.09 Partly Cloudy SCT110 9 6 82% 7 75.92 0.0
08 03:40 S 17 16.09 Mostly Cloudy BKN110 9 6 82% 7 75.92 0.0
08 03:01 S 17 16.09 Partly Cloudy SCT110 9 6 82% 7 75.92 0.0
08 02:41 S 15 16.09 Partly Cloudy SCT110 9 6 82% 7 75.97 0.0
08 02:21 S 15 16.09 Partly Cloudy SCT110 10 6 76% 8 75.97 0.0
08 02:01 S 15 16.09 Mostly Cloudy BKN110 10 6 76% 8 76 0.0
08 01:40 S 13 16.09 Partly Cloudy SCT110 10 6 76% 8 76 0.0
08 01:20 S 13 16.09 Partly Cloudy SCT110 10 6 76% 8 76.02 0.0
08 01:00 S 13 16.09 Fair CLR 11 6 72% 76.05 0.0
08 00:43 S 13 16.09 Fair CLR 11 6 72% 76.05 0.0
08 00:21 S 15 16.09 Fair CLR 11 6 72% 76.05 0.0
08 00:00 S 17 16.09 Fair CLR 11 6 72% 76.02 0.0
07 23:40 S 11 16.09 Fair CLR 11 6 72% 76.02 0.0
07 23:21 S 11 16.09 Fair CLR 11 6 72% 76.02 0.0
07 23:00 S 9 16.09 Fair CLR 11 6 72% 76.02 0.0
07 22:22 S 9 16.09 Fair CLR 11 6 72% 76.02 0.0
07 21:40 S 9 16.09 Fair CLR 12 7 72% 76.02 0.0
07 21:20 S 11 16.09 Fair CLR 12 7 72% 76 0.0
07 21:00 S 9 16.09 Partly Cloudy SCT120 13 7 67% 76 0.0
07 20:40 S 9 16.09 Fair CLR 13 6 63% 75.97 0.0
07 20:20 S 9 16.09 Partly Cloudy SCT120 14 6 59% 75.97 0.0
07 20:00 SW 9 16.09 Overcast OVC120 16 6 52% 75.95 0.0
07 19:40 SW 13 16.09 Overcast OVC110 17 5 45% 75.95 0.0
07 19:20 SW 17 G 26 16.09 Overcast OVC110 17 4 42% 75.95 0.0
07 19:02 SW 17 16.09 Mostly Cloudy BKN110 17 4 42% 75.95 0.0
07 18:40 SW 22 16.09 Partly Cloudy SCT070 SCT120 18 4 40% 75.92 0.0
07 18:20 SW 22 G 31 16.09 Fair CLR 18 4 40% 75.92 0.0
07 18:00 SW 24 G 33 16.09 Fair CLR 18 4 40% 75.95 0.0
07 17:40 SW 26 G 39 16.09 Fair CLR 18 3 37% 75.95 0.0
07 17:21 SW 30 G 39 16.09 Partly Cloudy SCT120 18 3 37% 75.95 0.0
07 17:00 SW 30 G 39 16.09 Mostly Cloudy SCT075 BKN120 19 3 35% 75.97 0.0
07 16:40 SW 26 G 39 16.09 Mostly Cloudy SCT075 SCT085 BKN110 19 3 35% 75.97 0.0
07 16:04 SW 31 G 37 16.09 Partly Cloudy SCT075 SCT080 18 3 37% 76 0.0
07 15:40 SW 28 G 37 16.09 Partly Cloudy SCT075 SCT085 18 4 40% 76.02 0.0
07 15:20 SW 30 G 46 16.09 Partly Cloudy SCT075 SCT085 18 3 37% 76.02 0.0
07 15:02 SW 33 G 41 16.09 Partly Cloudy and Breezy SCT065 SCT090 18 3 37% 76.05 0.0
07 14:20 W 20 G 37 16.09 Partly Cloudy SCT065 SCT080 SCT095 18 3 37% 76.12 0.0
07 13:41 SW 24 G 43 16.09 Fair CLR 17 4 42% 76.12 0.0
07 13:20 SW 24 G 43 16.09 Fair CLR 17 4 42% 76.12 0.0
07 13:00 W 26 G 39 16.09 Partly Cloudy SCT060 17 3 39% 76.15 0.0
07 12:42 SW 20 G 39 16.09 Partly Cloudy SCT060 17 3 39% 76.17 0.0
07 12:20 SW 19 G 37 16.09 Fair CLR 16 3 42% 76.2 0.0
07 11:40 SW 20 16.09 Fair CLR 16 3 42% 76.23 0.0
07 11:20 SW 22 G 35 16.09 Fair CLR 15 3 45% 76.25 0.0
07 11:00 W 22 16.09 Fair CLR 14 2 44% 76.25 0.0
07 10:40 SW 24 G 30 16.09 Fair CLR 14 4 51% 76.25 0.0
07 10:20 SW 22 G 28 16.09 Fair CLR 14 3 48% 76.28 0.0
07 10:00 W 20 16.09 Fair CLR 13 3 51% 76.3 0.0
07 09:40 SW 20 16.09 Fair CLR 13 3 51% 76.3 0.0
07 09:21 SW 19 16.09 Fair CLR 13 3 51% 76.3 0.0
Date Time (cdt) Wind (kph) Vis. (km) Weather Sky Cond. Air Dwpt Max. Min. Relative Humidity Wind Chill (°C) Heat Index (°C) altimeter (cm) sea level (mb) 1 hr 3 hr 6 hr
6 hour
Temperature (ºC) Pressure Precipitation (cm)